Terminal Aerodrome Forecast
Issued by NWS Nashville, TN

Home | Current Version | Previous Version | Text Only | Print | Product List | Glossary On
Versions: 1 2 3 4 5 6 7 8 9 10 11 12 13 14 15 16 17 18 19 20 21 22 23 24 25 26 27 28 29 30 31 32 33 34 35
000
FTUS44 KOHX 220909 AAA
TAFBNA
TAF AMD
KBNA 220909Z 2209/2306 04003KT P6SM SCT150 OVC250
     FM221000 16006KT P6SM VCTS OVC020CB
     FM221100 17006KT 4SM -SHRA BR OVC015
      TEMPO 2211/2213 2SM -TSRA BR OVC007CB
     FM221500 19009G15KT P6SM VCSH OVC025
     FM222000 20011G18KT 5SM -SHRA OVC012=

USA.gov is the U.S. government's official web portal to all federal, state and local government web resources and services.